Time;durP1;ratioP1;P1;durP2;ratioP2;P2;SDS_P1;SDS_P2;PMS_P1;PMS_P2;Temp;Humidity;BMP_temperature;BMP_pressure;BME280_temperature;BME280_humidity;BME280_pressure;Samples;Min_cycle;Max_cycle;Signal;HPM_P1;HPM_P2
2023/10/11 00:05:24;;;;;;;4.38;2.30;;;;;;;;;;10432704;28;20048;-78
2023/10/11 00:11:01;;;;;;;3.13;1.90;;;;;;;;;;10409924;28;20068;-79
2023/10/11 00:16:23;;;;;;;4.22;2.53;;;;;;;;;;10415455;28;20041;-78
2023/10/11 00:22:16;;;;;;;5.03;2.28;;;;;;;;;;10428847;28;20160;-78
2023/10/11 00:28:26;;;;;;;3.05;1.63;;;;;;;;;;10426044;28;20049;-79
2023/10/11 00:40:06;;;;;;;2.88;1.52;;;;;;;;;;10349334;28;20056;-76
2023/10/11 00:45:58;;;;;;;;;;;;;;;;;;;;;
2023/10/11 00:58:21;;;;;;;;;;;;;;;;;;;;;
2023/10/11 01:04:18;;;;;;;;;;;;;;;;;;;;;
2023/10/11 01:22:48;;;;;;;;;;;;;;;;;;;;;
2023/10/11 01:28:38;;;;;;;3.40;2.33;;;;;;;;;;10423449;28;20580;-78
2023/10/11 01:34:06;;;;;;;3.72;2.08;;;;;;;;;;10429366;28;20049;-78
2023/10/11 01:40:24;;;;;;;3.45;2.17;;;;;;;;;;10429061;28;20059;-83
2023/10/11 01:45:56;;;;;;;3.28;1.90;;;;;;;;;;10422857;28;20060;-79
2023/10/11 01:51:03;;;;;;;3.15;1.83;;;;;;;;;;10370884;28;20097;-79
2023/10/11 01:56:08;;;;;;;3.00;1.90;;;;;;;;;;10382802;28;20046;-79
2023/10/11 02:01:21;;;;;;;3.40;1.67;;;;;;;;;;10400687;28;20038;-78
2023/10/11 02:06:25;;;;;;;4.78;2.10;;;;;;;;;;10385213;28;20042;-78
2023/10/11 02:11:30;;;;;;;3.58;1.60;;;;;;;;;;10372791;28;20072;-79
2023/10/11 02:16:33;;;;;;;3.03;1.75;;;;;;;;;;10382939;28;20067;-79
2023/10/11 02:21:37;;;;;;;5.63;2.28;;;;;;;;;;10380765;28;20720;-78
2023/10/11 02:26:49;;;;;;;2.65;1.80;;;;;;;;;;10363921;28;20100;-79
2023/10/11 02:31:53;;;;;;;2.60;1.50;;;;;;;;;;10400658;28;20558;-79
2023/10/11 02:36:57;;;;;;;2.35;1.50;;;;;;;;;;10358964;28;20136;-79
2023/10/11 02:42:05;;;;;;;1.88;1.55;;;;;;;;;;10386802;28;20115;-79
2023/10/11 02:47:09;;;;;;;2.35;1.50;;;;;;;;;;10394261;28;20053;-79
2023/10/11 02:52:13;;;;;;;2.78;1.63;;;;;;;;;;10410386;28;20038;-80
2023/10/11 02:57:19;;;;;;;3.83;2.28;;;;;;;;;;10385972;28;20533;-79
2023/10/11 03:02:29;;;;;;;7.22;2.58;;;;;;;;;;10368250;28;20042;-79
2023/10/11 03:07:33;;;;;;;3.25;2.00;;;;;;;;;;10372363;28;20033;-78
2023/10/11 03:12:39;;;;;;;2.47;1.92;;;;;;;;;;10380893;28;20088;-79
2023/10/11 03:17:43;;;;;;;4.15;1.80;;;;;;;;;;10373356;28;20532;-78
2023/10/11 03:22:51;;;;;;;4.60;2.05;;;;;;;;;;10387626;28;20049;-78
2023/10/11 03:27:55;;;;;;;3.20;1.70;;;;;;;;;;10372554;28;20053;-78
2023/10/11 03:32:59;;;;;;;3.40;2.10;;;;;;;;;;10392560;28;20050;-78
2023/10/11 03:38:02;;;;;;;3.05;1.80;;;;;;;;;;10389003;28;20112;-78
2023/10/11 03:43:16;;;;;;;3.17;1.60;;;;;;;;;;10403895;28;20129;-79
2023/10/11 03:48:20;;;;;;;4.07;1.90;;;;;;;;;;10405902;28;20452;-78
2023/10/11 03:53:24;;;;;;;6.35;2.33;;;;;;;;;;10408238;28;20045;-79
2023/10/11 03:58:36;;;;;;;3.13;1.85;;;;;;;;;;10409446;28;20063;-79
2023/10/11 04:03:40;;;;;;;2.97;1.85;;;;;;;;;;10408998;28;20144;-79
2023/10/11 04:08:50;;;;;;;6.07;2.45;;;;;;;;;;10404761;28;20668;-79
2023/10/11 04:13:55;;;;;;;2.75;1.90;;;;;;;;;;10412332;28;20115;-79
2023/10/11 04:19:01;;;;;;;4.25;2.25;;;;;;;;;;10391920;28;20058;-79
2023/10/11 04:24:06;;;;;;;2.38;1.55;;;;;;;;;;10393568;28;20054;-79
2023/10/11 04:29:17;;;;;;;3.38;2.03;;;;;;;;;;10400288;28;20132;-79
2023/10/11 04:34:23;;;;;;;3.25;1.58;;;;;;;;;;10389859;28;20065;-78
2023/10/11 04:39:33;;;;;;;5.07;1.75;;;;;;;;;;10409114;28;20048;-80
2023/10/11 04:44:46;;;;;;;3.10;1.77;;;;;;;;;;10415789;28;20061;-79
2023/10/11 04:49:52;;;;;;;4.72;2.13;;;;;;;;;;10403019;28;20116;-78
2023/10/11 04:54:55;;;;;;;4.30;1.60;;;;;;;;;;10395643;28;20050;-78
2023/10/11 05:00:00;;;;;;;4.18;1.75;;;;;;;;;;10396613;28;20133;-79
2023/10/11 05:05:10;;;;;;;1.87;1.37;;;;;;;;;;10388776;28;20202;-79
2023/10/11 05:10:30;;;;;;;4.53;1.88;;;;;;;;;;10396451;28;20054;-79
2023/10/11 05:15:42;;;;;;;4.28;1.85;;;;;;;;;;10377303;28;20534;-79
2023/10/11 05:20:57;;;;;;;3.72;1.95;;;;;;;;;;10386292;28;20506;-79
2023/10/11 05:26:16;;;;;;;4.70;2.05;;;;;;;;;;10378934;28;20461;-79
2023/10/11 05:31:22;;;;;;;4.30;1.90;;;;;;;;;;10402545;28;20057;-79
2023/10/11 05:36:48;;;;;;;3.10;2.03;;;;;;;;;;10401100;28;20049;-79
2023/10/11 05:52:33;;;;;;;4.10;2.05;;;;;;;;;;10339499;28;20067;-79
2023/10/11 05:57:38;;;;;;;3.72;2.25;;;;;;;;;;10394717;28;20067;-79
2023/10/11 06:02:42;;;;;;;2.38;1.80;;;;;;;;;;10398498;28;20052;-79
2023/10/11 06:07:51;;;;;;;6.25;2.28;;;;;;;;;;10372652;28;20046;-79
2023/10/11 06:12:58;;;;;;;5.07;2.55;;;;;;;;;;10409336;28;20053;-78
2023/10/11 06:18:05;;;;;;;3.97;1.92;;;;;;;;;;10395854;28;20136;-79
2023/10/11 06:23:08;;;;;;;4.03;2.22;;;;;;;;;;10397542;28;20095;-79
2023/10/11 06:28:13;;;;;;;5.55;2.72;;;;;;;;;;10404085;28;20046;-80
2023/10/11 06:33:21;;;;;;;3.97;2.10;;;;;;;;;;10395192;28;20163;-79
2023/10/11 06:38:29;;;;;;;3.80;2.35;;;;;;;;;;10388682;28;20140;-79
2023/10/11 06:43:34;;;;;;;7.10;2.47;;;;;;;;;;10382469;28;20046;-79
2023/10/11 06:48:38;;;;;;;6.43;2.08;;;;;;;;;;10375196;28;20088;-79
2023/10/11 06:53:45;;;;;;;3.45;2.17;;;;;;;;;;10366817;28;20080;-79
2023/10/11 06:58:49;;;;;;;6.82;2.30;;;;;;;;;;10373975;28;20080;-79
2023/10/11 07:03:55;;;;;;;5.75;2.25;;;;;;;;;;10374388;28;20056;-79
2023/10/11 07:08:59;;;;;;;;;;;;;;;;;;10395237;28;20057;-79
2023/10/11 07:14:05;;;;;;;2.33;1.40;;;;;;;;;;10368893;28;20012;-79
2023/10/11 07:19:11;;;;;;;2.50;1.58;;;;;;;;;;10394401;28;20095;-79
2023/10/11 07:24:31;;;;;;;3.78;2.00;;;;;;;;;;10374373;28;20046;-79
2023/10/11 07:29:36;;;;;;;3.60;1.95;;;;;;;;;;10402692;28;20056;-79
2023/10/11 07:34:42;;;;;;;4.28;2.28;;;;;;;;;;10373521;28;20716;-79
2023/10/11 07:39:47;;;;;;;6.77;2.03;;;;;;;;;;10374245;28;20046;-80
2023/10/11 07:44:51;;;;;;;10.68;2.78;;;;;;;;;;10375317;28;20080;-79
2023/10/11 07:49:56;;;;;;;8.60;2.30;;;;;;;;;;10349541;28;20583;-79
2023/10/11 07:54:59;;;;;;;5.28;2.25;;;;;;;;;;10362281;28;20574;-79
2023/10/11 08:00:02;;;;;;;5.45;1.77;;;;;;;;;;10405427;28;20125;-79
2023/10/11 08:05:14;;;;;;;2.97;1.60;;;;;;;;;;10383298;28;20049;-79
2023/10/11 08:10:29;;;;;;;2.90;1.70;;;;;;;;;;10373018;28;20128;-79
2023/10/11 08:15:38;;;;;;;2.17;1.50;;;;;;;;;;10398408;28;20060;-80
2023/10/11 08:20:44;;;;;;;3.60;1.52;;;;;;;;;;10400232;28;20150;-79
2023/10/11 08:25:51;;;;;;;4.88;1.42;;;;;;;;;;10404419;28;20601;-79
2023/10/11 08:30:57;;;;;;;6.82;2.53;;;;;;;;;;10398255;28;20061;-79
2023/10/11 08:36:01;;;;;;;4.25;2.15;;;;;;;;;;10398896;28;20056;-79
2023/10/11 08:41:08;;;;;;;4.75;2.53;;;;;;;;;;10390415;28;20524;-79
2023/10/11 08:46:17;;;;;;;3.47;2.05;;;;;;;;;;10391608;28;20056;-80
2023/10/11 08:51:22;;;;;;;3.60;1.90;;;;;;;;;;10386724;28;20057;-79
2023/10/11 08:56:25;;;;;;;8.73;3.00;;;;;;;;;;10398218;28;20049;-79
2023/10/11 09:01:34;;;;;;;9.82;3.15;;;;;;;;;;10395936;28;20137;-79
2023/10/11 09:06:44;;;;;;;4.47;2.53;;;;;;;;;;10395709;28;20046;-79
2023/10/11 09:11:54;;;;;;;13.05;2.78;;;;;;;;;;10366837;28;20410;-79
2023/10/11 09:16:58;;;;;;;7.45;3.33;;;;;;;;;;10399205;28;20049;-79
2023/10/11 09:22:04;;;;;;;7.78;3.63;;;;;;;;;;10395471;28;20474;-79
2023/10/11 09:27:18;;;;;;;4.97;2.22;;;;;;;;;;10385303;28;20414;-79
2023/10/11 09:32:33;;;;;;;6.35;2.67;;;;;;;;;;10384048;28;20050;-79
2023/10/11 09:37:38;;;;;;;3.65;1.77;;;;;;;;;;10409879;28;20519;-79
2023/10/11 09:42:43;;;;;;;4.93;2.13;;;;;;;;;;10402614;28;20091;-79
2023/10/11 09:47:54;;;;;;;3.93;1.97;;;;;;;;;;10400715;28;20495;-79
2023/10/11 09:53:07;;;;;;;3.50;2.08;;;;;;;;;;10401955;28;20140;-79
2023/10/11 09:58:19;;;;;;;4.70;1.80;;;;;;;;;;10377588;28;20050;-79
2023/10/11 10:03:24;;;;;;;3.88;1.80;;;;;;;;;;10403074;28;20045;-80
2023/10/11 10:08:29;;;;;;;3.50;2.22;;;;;;;;;;10408342;28;20046;-79
2023/10/11 10:14:02;;;;;;;2.97;1.48;;;;;;;;;;10403929;28;20065;-79
2023/10/11 10:19:24;;;;;;;4.15;1.67;;;;;;;;;;10370956;28;20069;-79
2023/10/11 10:24:32;;;;;;;4.50;2.08;;;;;;;;;;10394820;28;20140;-77
2023/10/11 10:29:59;;;;;;;5.38;2.70;;;;;;;;;;10403558;28;20111;-77
2023/10/11 10:35:36;;;;;;;6.10;2.78;;;;;;;;;;10380074;28;20172;-76
2023/10/11 10:40:45;;;;;;;5.13;2.72;;;;;;;;;;10396140;28;20079;-76
2023/10/11 10:45:50;;;;;;;5.75;2.78;;;;;;;;;;10388688;28;20038;-76
2023/10/11 10:51:01;;;;;;;7.05;2.95;;;;;;;;;;10406701;28;20631;-76
2023/10/11 10:56:06;;;;;;;7.35;3.10;;;;;;;;;;10392739;28;20061;-76
2023/10/11 11:01:10;;;;;;;6.72;2.53;;;;;;;;;;10403965;28;20045;-76
2023/10/11 11:06:14;;;;;;;7.32;3.08;;;;;;;;;;10381201;28;20053;-77
2023/10/11 11:11:26;;;;;;;6.65;2.70;;;;;;;;;;10405736;28;20059;-76
2023/10/11 11:16:30;;;;;;;10.15;3.08;;;;;;;;;;10396979;28;20049;-77
2023/10/11 11:21:44;;;;;;;6.03;2.67;;;;;;;;;;10390348;28;20889;-77
2023/10/11 11:26:51;;;;;;;5.00;2.75;;;;;;;;;;10399882;28;20049;-77
2023/10/11 11:31:59;;;;;;;5.70;2.83;;;;;;;;;;10390647;28;20562;-77
2023/10/11 11:37:06;;;;;;;5.68;2.50;;;;;;;;;;10395519;28;20136;-76
2023/10/11 11:42:19;;;;;;;7.30;2.80;;;;;;;;;;10397578;28;20072;-76
2023/10/11 11:47:23;;;;;;;5.50;2.65;;;;;;;;;;10391650;28;20392;-77
2023/10/11 11:52:28;;;;;;;5.57;2.78;;;;;;;;;;10397044;28;20057;-77
2023/10/11 11:57:33;;;;;;;4.53;2.08;;;;;;;;;;10407570;28;20049;-76
2023/10/11 12:02:40;;;;;;;9.60;2.92;;;;;;;;;;10402580;28;20041;-77
2023/10/11 12:07:44;;;;;;;7.15;2.53;;;;;;;;;;10381661;28;20057;-76
2023/10/11 12:12:50;;;;;;;5.35;2.60;;;;;;;;;;10409676;28;20045;-77
2023/10/11 12:17:54;;;;;;;4.53;2.35;;;;;;;;;;10397933;28;20047;-76
2023/10/11 12:23:07;;;;;;;3.83;2.08;;;;;;;;;;10403947;28;20140;-77
2023/10/11 12:28:13;;;;;;;5.32;2.63;;;;;;;;;;10400861;28;20128;-77
2023/10/11 12:33:18;;;;;;;6.32;3.15;;;;;;;;;;10380011;28;20136;-77
2023/10/11 12:38:23;;;;;;;;;;;;;;;;;;10398915;28;20049;-77
2023/10/11 12:43:29;;;;;;;4.28;2.53;;;;;;;;;;10379242;28;19921;-77
2023/10/11 12:48:37;;;;;;;7.28;3.10;;;;;;;;;;10392404;28;20049;-76
2023/10/11 12:53:43;;;;;;;7.57;3.22;;;;;;;;;;10403186;28;20049;-76
2023/10/11 12:58:50;;;;;;;5.93;2.80;;;;;;;;;;10381720;28;20127;-77
2023/10/11 13:04:05;;;;;;;8.43;2.47;;;;;;;;;;10399881;28;20667;-77
2023/10/11 13:09:14;;;;;;;8.57;3.05;;;;;;;;;;10394125;28;20068;-77
2023/10/11 13:14:20;;;;;;;5.28;2.70;;;;;;;;;;10396799;28;20053;-77
2023/10/11 13:19:24;;;;;;;4.10;2.33;;;;;;;;;;10387951;28;20465;-76
2023/10/11 13:24:28;;;;;;;11.20;2.90;;;;;;;;;;10402845;28;20069;-77
2023/10/11 13:29:33;;;;;;;6.35;2.25;;;;;;;;;;10407187;28;20080;-76
2023/10/11 13:34:36;;;;;;;7.77;3.03;;;;;;;;;;10383096;28;20041;-77
2023/10/11 13:39:45;;;;;;;6.72;3.00;;;;;;;;;;10394378;28;20057;-76
2023/10/11 13:44:54;;;;;;;10.60;3.00;;;;;;;;;;10406768;28;20058;-77
2023/10/11 13:49:59;;;;;;;8.93;2.80;;;;;;;;;;10394517;28;20132;-77
2023/10/11 13:55:08;;;;;;;7.65;3.00;;;;;;;;;;10400953;28;20049;-77
2023/10/11 14:05:37;;;;;;;6.85;3.00;;;;;;;;;;10385997;28;20041;-77
2023/10/11 14:10:46;;;;;;;6.93;3.10;;;;;;;;;;10385548;28;20081;-77
2023/10/11 14:15:50;;;;;;;9.80;3.25;;;;;;;;;;10392266;28;20070;-77
2023/10/11 14:20:56;;;;;;;5.70;2.87;;;;;;;;;;10401700;28;20140;-77
2023/10/11 14:26:00;;;;;;;;;;;;;;;;;;10399878;28;20529;-77
2023/10/11 14:31:05;;;;;;;6.28;2.53;;;;;;;;;;10391908;28;19929;-77
2023/10/11 14:36:10;;;;;;;5.57;2.73;;;;;;;;;;10388750;28;20075;-77
2023/10/11 14:41:14;;;;;;;5.70;2.13;;;;;;;;;;10389093;28;20665;-77
2023/10/11 14:46:21;;;;;;;4.70;2.65;;;;;;;;;;10377226;28;20400;-77
2023/10/11 14:51:25;;;;;;;4.25;2.55;;;;;;;;;;10400093;28;20045;-77
2023/10/11 14:56:30;;;;;;;5.82;2.90;;;;;;;;;;10397608;28;20576;-76
2023/10/11 15:01:37;;;;;;;5.50;2.45;;;;;;;;;;10399520;28;20034;-77
2023/10/11 15:06:45;;;;;;;5.70;2.50;;;;;;;;;;10393749;28;20054;-77
2023/10/11 15:11:48;;;;;;;7.45;2.47;;;;;;;;;;10402900;28;20129;-77
2023/10/11 15:16:53;;;;;;;7.30;2.95;;;;;;;;;;10382045;28;20136;-77
2023/10/11 15:21:59;;;;;;;5.10;2.67;;;;;;;;;;10394111;28;20100;-77
2023/10/11 15:27:02;;;;;;;6.13;2.85;;;;;;;;;;10385626;28;20525;-77
2023/10/11 15:32:07;;;;;;;4.72;2.10;;;;;;;;;;10402178;28;20494;-78
2023/10/11 15:37:10;;;;;;;5.70;1.77;;;;;;;;;;10396265;28;20046;-77
2023/10/11 15:42:14;;;;;;;4.60;2.08;;;;;;;;;;10382734;28;20050;-77
2023/10/11 15:47:18;;;;;;;4.85;2.35;;;;;;;;;;10393419;28;20054;-77
2023/10/11 15:52:23;;;;;;;4.43;2.50;;;;;;;;;;10395729;28;20136;-77
2023/10/11 15:57:26;;;;;;;5.60;1.55;;;;;;;;;;10387188;28;20056;-77
2023/10/11 16:02:31;;;;;;;3.55;1.63;;;;;;;;;;10398947;28;20128;-77
2023/10/11 16:07:35;;;;;;;3.08;1.40;;;;;;;;;;10404539;28;20049;-77
2023/10/11 16:12:42;;;;;;;2.40;1.60;;;;;;;;;;10412060;28;20045;-77
2023/10/11 16:17:48;;;;;;;3.97;1.73;;;;;;;;;;10401800;28;20084;-77
2023/10/11 16:22:52;;;;;;;3.45;1.60;;;;;;;;;;10383337;28;20786;-77
2023/10/11 16:27:55;;;;;;;5.50;1.80;;;;;;;;;;10413134;28;20140;-78
2023/10/11 16:33:00;;;;;;;5.07;1.80;;;;;;;;;;10380975;28;20394;-77
2023/10/11 16:38:03;;;;;;;4.25;1.95;;;;;;;;;;10380088;28;20050;-77
2023/10/11 16:43:08;;;;;;;4.30;1.95;;;;;;;;;;10390573;28;20052;-77
2023/10/11 16:48:13;;;;;;;3.92;1.85;;;;;;;;;;10399176;28;20049;-77
2023/10/11 16:53:16;;;;;;;6.78;2.03;;;;;;;;;;10405573;28;20050;-76
2023/10/11 16:58:20;;;;;;;4.60;1.67;;;;;;;;;;10405941;28;20042;-77
2023/10/11 17:03:25;;;;;;;6.30;2.15;;;;;;;;;;10386390;28;20116;-77
2023/10/11 17:08:28;;;;;;;4.10;1.95;;;;;;;;;;10385775;28;20061;-77
2023/10/11 17:13:32;;;;;;;3.80;1.70;;;;;;;;;;10376168;28;20129;-77
2023/10/11 17:18:37;;;;;;;4.93;2.05;;;;;;;;;;10396764;28;20046;-76
2023/10/11 17:23:41;;;;;;;3.83;1.67;;;;;;;;;;10397157;28;20145;-77
2023/10/11 17:28:45;;;;;;;5.78;2.40;;;;;;;;;;10412175;28;20059;-77
2023/10/11 17:33:49;;;;;;;6.78;1.85;;;;;;;;;;10398156;28;20422;-76
2023/10/11 17:38:53;;;;;;;6.10;2.20;;;;;;;;;;10402779;28;20571;-77
2023/10/11 17:43:56;;;;;;;4.65;2.30;;;;;;;;;;10404981;28;20053;-77
2023/10/11 17:49:01;;;;;;;3.30;2.00;;;;;;;;;;10397979;28;20056;-76
2023/10/11 17:54:06;;;;;;;3.33;2.00;;;;;;;;;;10395126;28;20511;-77
2023/10/11 17:59:11;;;;;;;4.90;1.90;;;;;;;;;;10391743;28;20136;-77
2023/10/11 18:04:15;;;;;;;4.63;1.77;;;;;;;;;;10393739;28;20407;-77
2023/10/11 18:09:19;;;;;;;5.72;1.75;;;;;;;;;;10401656;28;20099;-77
2023/10/11 18:14:22;;;;;;;3.15;1.83;;;;;;;;;;10370807;28;20635;-77
2023/10/11 18:19:27;;;;;;;3.40;1.63;;;;;;;;;;10396723;28;20045;-77
2023/10/11 18:24:31;;;;;;;4.95;2.22;;;;;;;;;;10389010;28;20494;-77
2023/10/11 18:29:34;;;;;;;4.78;1.80;;;;;;;;;;10399315;28;20600;-77
2023/10/11 18:34:39;;;;;;;5.57;2.10;;;;;;;;;;10377892;28;20081;-77
2023/10/11 18:39:42;;;;;;;5.57;2.00;;;;;;;;;;10383321;28;20052;-77
2023/10/11 18:44:49;;;;;;;4.20;1.90;;;;;;;;;;10395259;28;20053;-77
2023/10/11 18:49:55;;;;;;;3.97;2.15;;;;;;;;;;10372049;28;20048;-77
2023/10/11 18:54:58;;;;;;;4.17;1.97;;;;;;;;;;10392826;28;20048;-77
2023/10/11 19:00:01;;;;;;;6.10;2.10;;;;;;;;;;10406009;28;20095;-77
2023/10/11 19:05:07;;;;;;;6.82;2.15;;;;;;;;;;10384738;28;20046;-77
2023/10/11 19:10:14;;;;;;;3.70;2.22;;;;;;;;;;10390719;28;20048;-78
2023/10/11 19:15:17;;;;;;;4.50;2.03;;;;;;;;;;10401847;28;20484;-77
2023/10/11 19:20:23;;;;;;;4.15;2.28;;;;;;;;;;10360808;28;20060;-77
2023/10/11 19:25:28;;;;;;;5.30;2.42;;;;;;;;;;10385061;28;20716;-78
2023/10/11 19:30:31;;;;;;;4.57;1.85;;;;;;;;;;10395694;28;20046;-77
2023/10/11 19:35:36;;;;;;;4.28;2.22;;;;;;;;;;10384749;28;20133;-79
2023/10/11 19:40:42;;;;;;;4.53;1.98;;;;;;;;;;10381631;28;20144;-80
2023/10/11 21:47:20;;;;;;;8.02;1.92;;;;;;;;;;10359890;23;20450;-77
2023/10/11 21:59:31;;;;;;;4.07;1.55;;;;;;;;;;10356935;28;20050;-78
2023/10/11 22:16:38;;;;;;;3.40;1.50;;;;;;;;;;10320313;28;20044;-77
2023/10/11 22:22:35;;;;;;;;;;;;;;;;;;;;;
2023/10/11 22:34:45;;;;;;;2.47;1.30;;;;;;;;;;10344242;28;20057;-77
2023/10/11 22:40:53;;;;;;;3.25;1.70;;;;;;;;;;10395251;28;20054;-78
2023/10/11 22:53:25;;;;;;;3.80;1.85;;;;;;;;;;10349560;28;20053;-77
2023/10/11 22:58:55;;;;;;;1.92;1.67;;;;;;;;;;10358497;28;20050;-77
2023/10/11 23:11:36;;;;;;;2.38;1.63;;;;;;;;;;10350627;28;20124;-77
2023/10/11 23:52:27;;;;;;;6.78;3.38;;;;;;;;;;9993604;29;20059;-77
